sensor_id;sensor_type;location;lat;lon;timestamp;temperature;humidity
23475;DHT22;11910;52.086;21.066;2023-03-29T00:01:15;-0.90;85.10
23475;DHT22;11910;52.086;21.066;2023-03-29T00:03:40;-0.90;85.10
23475;DHT22;11910;52.086;21.066;2023-03-29T00:06:09;-0.90;85.10
23475;DHT22;11910;52.086;21.066;2023-03-29T00:08:40;-0.90;85.00
23475;DHT22;11910;52.086;21.066;2023-03-29T00:11:06;-0.90;85.20
23475;DHT22;11910;52.086;21.066;2023-03-29T00:13:32;-0.90;85.30
23475;DHT22;11910;52.086;21.066;2023-03-29T00:15:58;-0.90;85.40
23475;DHT22;11910;52.086;21.066;2023-03-29T00:18:26;-0.90;85.30
23475;DHT22;11910;52.086;21.066;2023-03-29T00:20:56;-0.90;85.60
23475;DHT22;11910;52.086;21.066;2023-03-29T00:23:26;-0.90;85.70
23475;DHT22;11910;52.086;21.066;2023-03-29T00:25:52;-0.90;85.10
23475;DHT22;11910;52.086;21.066;2023-03-29T00:28:18;-0.90;85.20
23475;DHT22;11910;52.086;21.066;2023-03-29T00:30:44;-0.90;85.20
23475;DHT22;11910;52.086;21.066;2023-03-29T00:33:11;-1.00;85.00
23475;DHT22;11910;52.086;21.066;2023-03-29T00:35:39;-1.00;85.00
23475;DHT22;11910;52.086;21.066;2023-03-29T00:38:05;-1.00;84.70
23475;DHT22;11910;52.086;21.066;2023-03-29T00:40:32;-1.00;84.80
23475;DHT22;11910;52.086;21.066;2023-03-29T00:42:58;-1.00;84.60
23475;DHT22;11910;52.086;21.066;2023-03-29T00:45:26;-1.00;84.60
23475;DHT22;11910;52.086;21.066;2023-03-29T00:47:57;-1.00;84.70
23475;DHT22;11910;52.086;21.066;2023-03-29T00:50:40;-1.00;85.00
23475;DHT22;11910;52.086;21.066;2023-03-29T00:55:54;-1.00;84.40
23475;DHT22;11910;52.086;21.066;2023-03-29T00:58:25;-1.10;84.30
23475;DHT22;11910;52.086;21.066;2023-03-29T01:01:06;-1.10;84.60
23475;DHT22;11910;52.086;21.066;2023-03-29T01:03:39;-1.10;84.60
23475;DHT22;11910;52.086;21.066;2023-03-29T01:06:11;-1.10;84.70
23475;DHT22;11910;52.086;21.066;2023-03-29T01:08:44;-1.10;84.40
23475;DHT22;11910;52.086;21.066;2023-03-29T01:11:16;-1.10;84.70
23475;DHT22;11910;52.086;21.066;2023-03-29T01:14:02;-1.10;84.90
23475;DHT22;11910;52.086;21.066;2023-03-29T01:16:30;-1.10;84.90
23475;DHT22;11910;52.086;21.066;2023-03-29T01:18:58;-1.10;85.00
23475;DHT22;11910;52.086;21.066;2023-03-29T01:21:32;-1.10;84.80
23475;DHT22;11910;52.086;21.066;2023-03-29T01:24:16;-1.10;85.10
23475;DHT22;11910;52.086;21.066;2023-03-29T01:26:56;-1.20;85.20
23475;DHT22;11910;52.086;21.066;2023-03-29T01:29:55;-1.20;85.30
23475;DHT22;11910;52.086;21.066;2023-03-29T01:32:34;-1.20;85.40
23475;DHT22;11910;52.086;21.066;2023-03-29T01:35:12;-1.20;85.70
23475;DHT22;11910;52.086;21.066;2023-03-29T01:37:44;-1.20;85.70
23475;DHT22;11910;52.086;21.066;2023-03-29T01:40:12;-1.30;85.90
23475;DHT22;11910;52.086;21.066;2023-03-29T01:42:49;-1.30;86.10
23475;DHT22;11910;52.086;21.066;2023-03-29T01:48:04;-1.30;86.60
23475;DHT22;11910;52.086;21.066;2023-03-29T01:50:46;-1.30;86.80
23475;DHT22;11910;52.086;21.066;2023-03-29T01:53:21;-1.30;86.90
23475;DHT22;11910;52.086;21.066;2023-03-29T01:55:52;-1.30;87.30
23475;DHT22;11910;52.086;21.066;2023-03-29T01:58:22;-1.40;87.30
23475;DHT22;11910;52.086;21.066;2023-03-29T02:00:49;-1.40;87.80
23475;DHT22;11910;52.086;21.066;2023-03-29T02:03:20;-1.40;87.90
23475;DHT22;11910;52.086;21.066;2023-03-29T02:05:48;-1.40;88.00
23475;DHT22;11910;52.086;21.066;2023-03-29T02:08:15;-1.40;88.20
23475;DHT22;11910;52.086;21.066;2023-03-29T02:10:42;-1.40;88.50
23475;DHT22;11910;52.086;21.066;2023-03-29T02:13:08;-1.40;88.80
23475;DHT22;11910;52.086;21.066;2023-03-29T02:15:34;-1.50;88.90
23475;DHT22;11910;52.086;21.066;2023-03-29T02:18:00;-1.40;88.90
23475;DHT22;11910;52.086;21.066;2023-03-29T02:20:35;-1.50;89.30
23475;DHT22;11910;52.086;21.066;2023-03-29T02:23:14;-1.50;89.60
23475;DHT22;11910;52.086;21.066;2023-03-29T02:25:43;-1.50;90.00
23475;DHT22;11910;52.086;21.066;2023-03-29T02:28:15;-1.50;90.00
23475;DHT22;11910;52.086;21.066;2023-03-29T02:31:06;-1.50;90.10
23475;DHT22;11910;52.086;21.066;2023-03-29T02:33:52;-1.50;90.30
23475;DHT22;11910;52.086;21.066;2023-03-29T02:36:38;-1.60;90.30
23475;DHT22;11910;52.086;21.066;2023-03-29T02:39:07;-1.60;90.40
23475;DHT22;11910;52.086;21.066;2023-03-29T02:41:36;-1.60;90.60
23475;DHT22;11910;52.086;21.066;2023-03-29T02:44:03;-1.60;90.70
23475;DHT22;11910;52.086;21.066;2023-03-29T02:46:32;-1.60;90.70
23475;DHT22;11910;52.086;21.066;2023-03-29T02:48:59;-1.60;90.80
23475;DHT22;11910;52.086;21.066;2023-03-29T02:51:29;-1.60;91.00
23475;DHT22;11910;52.086;21.066;2023-03-29T02:54:04;-1.60;91.10
23475;DHT22;11910;52.086;21.066;2023-03-29T02:56:43;-1.60;91.20
23475;DHT22;11910;52.086;21.066;2023-03-29T02:59:10;-1.70;91.30
23475;DHT22;11910;52.086;21.066;2023-03-29T03:01:37;-1.70;91.50
23475;DHT22;11910;52.086;21.066;2023-03-29T03:04:03;-1.70;91.50
23475;DHT22;11910;52.086;21.066;2023-03-29T03:06:28;-1.70;91.60
23475;DHT22;11910;52.086;21.066;2023-03-29T03:08:54;-1.70;91.60
23475;DHT22;11910;52.086;21.066;2023-03-29T03:11:20;-1.70;91.70
23475;DHT22;11910;52.086;21.066;2023-03-29T03:13:47;-1.70;91.70
23475;DHT22;11910;52.086;21.066;2023-03-29T03:16:12;-1.70;92.00
23475;DHT22;11910;52.086;21.066;2023-03-29T03:18:38;-1.70;92.10
23475;DHT22;11910;52.086;21.066;2023-03-29T03:21:04;-1.70;92.00
23475;DHT22;11910;52.086;21.066;2023-03-29T03:23:30;-1.70;92.20
23475;DHT22;11910;52.086;21.066;2023-03-29T03:25:56;-1.70;92.30
23475;DHT22;11910;52.086;21.066;2023-03-29T03:28:23;-1.70;92.40
23475;DHT22;11910;52.086;21.066;2023-03-29T03:30:51;-1.70;92.30
23475;DHT22;11910;52.086;21.066;2023-03-29T03:33:17;-1.70;92.60
23475;DHT22;11910;52.086;21.066;2023-03-29T03:35:43;-1.70;92.60
23475;DHT22;11910;52.086;21.066;2023-03-29T03:38:11;-1.70;92.70
23475;DHT22;11910;52.086;21.066;2023-03-29T03:40:36;-1.70;92.70
23475;DHT22;11910;52.086;21.066;2023-03-29T03:43:02;-1.80;92.70
23475;DHT22;11910;52.086;21.066;2023-03-29T03:45:28;-1.80;92.70
23475;DHT22;11910;52.086;21.066;2023-03-29T03:47:54;-1.80;92.80
23475;DHT22;11910;52.086;21.066;2023-03-29T03:50:20;-1.80;92.90
23475;DHT22;11910;52.086;21.066;2023-03-29T03:52:45;-1.80;93.00
23475;DHT22;11910;52.086;21.066;2023-03-29T03:55:11;-1.80;93.00
23475;DHT22;11910;52.086;21.066;2023-03-29T03:57:36;-1.80;93.00
23475;DHT22;11910;52.086;21.066;2023-03-29T04:00:05;-1.80;93.00
23475;DHT22;11910;52.086;21.066;2023-03-29T04:02:46;-1.80;93.10
23475;DHT22;11910;52.086;21.066;2023-03-29T04:05:13;-1.90;93.20
23475;DHT22;11910;52.086;21.066;2023-03-29T04:07:38;-1.80;93.20
23475;DHT22;11910;52.086;21.066;2023-03-29T04:10:06;-1.90;93.30
23475;DHT22;11910;52.086;21.066;2023-03-29T04:12:36;-1.90;93.50
23475;DHT22;11910;52.086;21.066;2023-03-29T04:15:03;-1.90;93.50
23475;DHT22;11910;52.086;21.066;2023-03-29T04:17:29;-1.90;93.50
23475;DHT22;11910;52.086;21.066;2023-03-29T04:19:55;-1.90;93.50
23475;DHT22;11910;52.086;21.066;2023-03-29T04:22:22;-1.90;93.60
23475;DHT22;11910;52.086;21.066;2023-03-29T04:24:49;-1.90;93.70
23475;DHT22;11910;52.086;21.066;2023-03-29T04:27:15;-1.90;93.70
23475;DHT22;11910;52.086;21.066;2023-03-29T04:29:41;-1.90;93.80
23475;DHT22;11910;52.086;21.066;2023-03-29T04:32:09;-1.90;93.90
23475;DHT22;11910;52.086;21.066;2023-03-29T04:34:35;-1.90;93.80
23475;DHT22;11910;52.086;21.066;2023-03-29T04:37:00;-1.90;93.80
23475;DHT22;11910;52.086;21.066;2023-03-29T04:39:26;-1.90;93.80
23475;DHT22;11910;52.086;21.066;2023-03-29T04:41:58;-1.90;93.90
23475;DHT22;11910;52.086;21.066;2023-03-29T04:44:24;-1.90;94.10
23475;DHT22;11910;52.086;21.066;2023-03-29T04:46:51;-1.90;94.00
23475;DHT22;11910;52.086;21.066;2023-03-29T04:49:16;-1.80;94.00
23475;DHT22;11910;52.086;21.066;2023-03-29T04:51:42;-1.80;94.00
23475;DHT22;11910;52.086;21.066;2023-03-29T04:54:08;-1.80;94.00
23475;DHT22;11910;52.086;21.066;2023-03-29T04:56:34;-1.80;94.10
23475;DHT22;11910;52.086;21.066;2023-03-29T04:59:00;-1.70;94.10
23475;DHT22;11910;52.086;21.066;2023-03-29T05:01:25;-1.70;94.00
23475;DHT22;11910;52.086;21.066;2023-03-29T05:03:51;-1.70;94.10
23475;DHT22;11910;52.086;21.066;2023-03-29T05:06:17;-1.60;94.20
23475;DHT22;11910;52.086;21.066;2023-03-29T05:08:43;-1.60;94.10
23475;DHT22;11910;52.086;21.066;2023-03-29T05:11:10;-1.60;94.10
23475;DHT22;11910;52.086;21.066;2023-03-29T05:13:36;-1.50;94.10
23475;DHT22;11910;52.086;21.066;2023-03-29T05:16:03;-1.50;94.00
23475;DHT22;11910;52.086;21.066;2023-03-29T05:18:30;-1.50;94.00
23475;DHT22;11910;52.086;21.066;2023-03-29T05:20:57;-1.40;94.00
23475;DHT22;11910;52.086;21.066;2023-03-29T05:23:23;-1.40;93.90
23475;DHT22;11910;52.086;21.066;2023-03-29T05:25:50;-1.30;93.80
23475;DHT22;11910;52.086;21.066;2023-03-29T05:28:17;-1.30;93.80
23475;DHT22;11910;52.086;21.066;2023-03-29T05:30:44;-1.20;93.80
23475;DHT22;11910;52.086;21.066;2023-03-29T05:33:10;-1.20;93.60
23475;DHT22;11910;52.086;21.066;2023-03-29T05:35:36;-1.10;93.50
23475;DHT22;11910;52.086;21.066;2023-03-29T05:38:03;-1.10;93.80
23475;DHT22;11910;52.086;21.066;2023-03-29T05:40:29;-1.00;93.40
23475;DHT22;11910;52.086;21.066;2023-03-29T05:42:56;-1.00;93.30
23475;DHT22;11910;52.086;21.066;2023-03-29T05:45:23;-0.90;93.30
23475;DHT22;11910;52.086;21.066;2023-03-29T05:47:49;-0.80;93.20
23475;DHT22;11910;52.086;21.066;2023-03-29T05:50:15;-0.70;93.10
23475;DHT22;11910;52.086;21.066;2023-03-29T05:52:41;-0.70;93.10
23475;DHT22;11910;52.086;21.066;2023-03-29T05:55:08;-0.60;92.90
23475;DHT22;11910;52.086;21.066;2023-03-29T05:57:35;-0.60;92.90
23475;DHT22;11910;52.086;21.066;2023-03-29T06:00:03;-0.50;92.90
23475;DHT22;11910;52.086;21.066;2023-03-29T06:02:40;-0.40;92.60
23475;DHT22;11910;52.086;21.066;2023-03-29T06:05:06;-0.30;92.70
23475;DHT22;11910;52.086;21.066;2023-03-29T06:07:32;-0.30;92.60
23475;DHT22;11910;52.086;21.066;2023-03-29T06:09:57;-0.20;92.40
23475;DHT22;11910;52.086;21.066;2023-03-29T06:12:23;-0.10;92.60
23475;DHT22;11910;52.086;21.066;2023-03-29T06:14:49;-0.10;92.40
23475;DHT22;11910;52.086;21.066;2023-03-29T06:17:15;0.00;92.20
23475;DHT22;11910;52.086;21.066;2023-03-29T06:19:41;0.10;92.00
23475;DHT22;11910;52.086;21.066;2023-03-29T06:22:06;0.20;92.00
23475;DHT22;11910;52.086;21.066;2023-03-29T06:24:32;0.30;92.00
23475;DHT22;11910;52.086;21.066;2023-03-29T06:26:58;0.30;91.70
23475;DHT22;11910;52.086;21.066;2023-03-29T06:29:24;0.40;91.70
23475;DHT22;11910;52.086;21.066;2023-03-29T06:31:49;0.50;91.90
23475;DHT22;11910;52.086;21.066;2023-03-29T06:34:15;0.60;91.60
23475;DHT22;11910;52.086;21.066;2023-03-29T06:36:41;0.70;91.50
23475;DHT22;11910;52.086;21.066;2023-03-29T06:39:07;0.80;91.30
23475;DHT22;11910;52.086;21.066;2023-03-29T06:41:33;0.90;91.30
23475;DHT22;11910;52.086;21.066;2023-03-29T06:43:59;0.90;90.80
23475;DHT22;11910;52.086;21.066;2023-03-29T06:46:24;1.00;90.80
23475;DHT22;11910;52.086;21.066;2023-03-29T06:48:50;1.10;90.70
23475;DHT22;11910;52.086;21.066;2023-03-29T06:51:17;1.30;90.70
23475;DHT22;11910;52.086;21.066;2023-03-29T06:53:42;1.40;90.30
23475;DHT22;11910;52.086;21.066;2023-03-29T06:56:08;1.60;90.20
23475;DHT22;11910;52.086;21.066;2023-03-29T06:58:34;1.80;90.10
23475;DHT22;11910;52.086;21.066;2023-03-29T07:01:00;2.10;90.00
23475;DHT22;11910;52.086;21.066;2023-03-29T07:03:28;2.30;88.30
23475;DHT22;11910;52.086;21.066;2023-03-29T07:06:04;2.50;88.10
23475;DHT22;11910;52.086;21.066;2023-03-29T07:08:38;2.80;86.80
23475;DHT22;11910;52.086;21.066;2023-03-29T07:11:14;3.00;85.90
23475;DHT22;11910;52.086;21.066;2023-03-29T07:13:43;3.10;85.10
23475;DHT22;11910;52.086;21.066;2023-03-29T07:16:11;3.10;84.70
23475;DHT22;11910;52.086;21.066;2023-03-29T07:18:42;3.10;84.20
23475;DHT22;11910;52.086;21.066;2023-03-29T07:21:09;3.10;84.30
23475;DHT22;11910;52.086;21.066;2023-03-29T07:23:35;3.30;84.70
23475;DHT22;11910;52.086;21.066;2023-03-29T07:26:02;3.40;84.20
23475;DHT22;11910;52.086;21.066;2023-03-29T07:28:28;3.60;83.70
23475;DHT22;11910;52.086;21.066;2023-03-29T07:31:02;3.60;82.70
23475;DHT22;11910;52.086;21.066;2023-03-29T07:33:29;3.70;82.00
23475;DHT22;11910;52.086;21.066;2023-03-29T07:35:55;4.00;82.20
23475;DHT22;11910;52.086;21.066;2023-03-29T07:38:21;4.30;81.40
23475;DHT22;11910;52.086;21.066;2023-03-29T07:40:47;4.50;81.20
23475;DHT22;11910;52.086;21.066;2023-03-29T07:43:13;4.70;79.50
23475;DHT22;11910;52.086;21.066;2023-03-29T07:45:38;4.70;78.90
23475;DHT22;11910;52.086;21.066;2023-03-29T07:48:08;4.80;77.80
23475;DHT22;11910;52.086;21.066;2023-03-29T07:50:34;4.90;78.70
23475;DHT22;11910;52.086;21.066;2023-03-29T07:52:59;4.90;77.90
23475;DHT22;11910;52.086;21.066;2023-03-29T07:55:26;5.00;77.40
23475;DHT22;11910;52.086;21.066;2023-03-29T07:57:52;5.10;76.60
23475;DHT22;11910;52.086;21.066;2023-03-29T08:00:18;5.10;76.50
23475;DHT22;11910;52.086;21.066;2023-03-29T08:02:46;5.30;76.40
23475;DHT22;11910;52.086;21.066;2023-03-29T08:05:13;5.40;75.80
23475;DHT22;11910;52.086;21.066;2023-03-29T08:07:40;5.50;75.40
23475;DHT22;11910;52.086;21.066;2023-03-29T08:10:08;5.60;73.90
23475;DHT22;11910;52.086;21.066;2023-03-29T08:12:35;5.70;73.40
23475;DHT22;11910;52.086;21.066;2023-03-29T08:15:02;5.80;71.70
23475;DHT22;11910;52.086;21.066;2023-03-29T08:17:28;6.00;71.10
23475;DHT22;11910;52.086;21.066;2023-03-29T08:19:54;6.30;70.90
23475;DHT22;11910;52.086;21.066;2023-03-29T08:22:20;6.60;68.80
23475;DHT22;11910;52.086;21.066;2023-03-29T08:24:46;6.80;68.10
23475;DHT22;11910;52.086;21.066;2023-03-29T08:27:12;6.90;66.40
23475;DHT22;11910;52.086;21.066;2023-03-29T08:29:38;7.20;66.20
23475;DHT22;11910;52.086;21.066;2023-03-29T08:32:04;7.40;64.50
23475;DHT22;11910;52.086;21.066;2023-03-29T08:34:30;7.50;63.30
23475;DHT22;11910;52.086;21.066;2023-03-29T08:36:57;7.60;61.50
23475;DHT22;11910;52.086;21.066;2023-03-29T08:39:22;7.60;60.30
23475;DHT22;11910;52.086;21.066;2023-03-29T08:42:00;7.70;59.80
23475;DHT22;11910;52.086;21.066;2023-03-29T08:44:46;7.70;57.50
23475;DHT22;11910;52.086;21.066;2023-03-29T08:49:55;7.80;55.30
23475;DHT22;11910;52.086;21.066;2023-03-29T08:52:32;7.80;54.50
23475;DHT22;11910;52.086;21.066;2023-03-29T08:54:59;8.10;54.10
23475;DHT22;11910;52.086;21.066;2023-03-29T08:57:38;8.10;54.40
23475;DHT22;11910;52.086;21.066;2023-03-29T09:00:06;8.40;51.20
23475;DHT22;11910;52.086;21.066;2023-03-29T09:02:35;8.50;50.10
23475;DHT22;11910;52.086;21.066;2023-03-29T09:05:13;8.80;50.90
23475;DHT22;11910;52.086;21.066;2023-03-29T09:07:41;9.10;49.50
23475;DHT22;11910;52.086;21.066;2023-03-29T09:10:13;9.40;48.50
23475;DHT22;11910;52.086;21.066;2023-03-29T09:15:51;9.90;45.90
23475;DHT22;11910;52.086;21.066;2023-03-29T09:18:21;10.00;44.50
23475;DHT22;11910;52.086;21.066;2023-03-29T09:20:59;10.40;44.90
23475;DHT22;11910;52.086;21.066;2023-03-29T09:26:58;10.90;43.70
23475;DHT22;11910;52.086;21.066;2023-03-29T09:29:39;10.80;39.40
23475;DHT22;11910;52.086;21.066;2023-03-29T09:32:20;10.90;39.90
23475;DHT22;11910;52.086;21.066;2023-03-29T09:37:45;11.30;40.90
23475;DHT22;11910;52.086;21.066;2023-03-29T09:40:28;11.60;38.40
23475;DHT22;11910;52.086;21.066;2023-03-29T09:42:57;11.70;35.80
23475;DHT22;11910;52.086;21.066;2023-03-29T09:45:23;12.20;35.90
23475;DHT22;11910;52.086;21.066;2023-03-29T09:47:56;12.60;34.30
23475;DHT22;11910;52.086;21.066;2023-03-29T09:50:33;13.40;34.60
23475;DHT22;11910;52.086;21.066;2023-03-29T09:53:01;13.80;33.30
23475;DHT22;11910;52.086;21.066;2023-03-29T09:55:29;14.50;33.60
23475;DHT22;11910;52.086;21.066;2023-03-29T09:58:18;15.30;31.30
23475;DHT22;11910;52.086;21.066;2023-03-29T10:00:45;15.50;31.50
23475;DHT22;11910;52.086;21.066;2023-03-29T10:03:21;15.30;28.40
23475;DHT22;11910;52.086;21.066;2023-03-29T10:05:49;15.50;29.50
23475;DHT22;11910;52.086;21.066;2023-03-29T10:08:35;15.60;29.50
23475;DHT22;11910;52.086;21.066;2023-03-29T10:11:21;15.90;28.50
23475;DHT22;11910;52.086;21.066;2023-03-29T10:13:50;16.00;28.50
23475;DHT22;11910;52.086;21.066;2023-03-29T10:16:22;17.00;28.10
23475;DHT22;11910;52.086;21.066;2023-03-29T10:18:49;17.70;27.60
23475;DHT22;11910;52.086;21.066;2023-03-29T10:21:16;17.60;27.00
23475;DHT22;11910;52.086;21.066;2023-03-29T10:23:43;17.70;26.60
23475;DHT22;11910;52.086;21.066;2023-03-29T10:26:28;17.60;25.90
23475;DHT22;11910;52.086;21.066;2023-03-29T10:28:56;18.10;25.50
23475;DHT22;11910;52.086;21.066;2023-03-29T10:31:24;18.40;26.10
23475;DHT22;11910;52.086;21.066;2023-03-29T10:33:55;18.90;25.70
23475;DHT22;11910;52.086;21.066;2023-03-29T10:36:24;18.70;27.00
23475;DHT22;11910;52.086;21.066;2023-03-29T10:38:52;18.70;26.20
23475;DHT22;11910;52.086;21.066;2023-03-29T10:41:20;19.30;27.50
23475;DHT22;11910;52.086;21.066;2023-03-29T10:43:49;18.80;27.10
23475;DHT22;11910;52.086;21.066;2023-03-29T10:46:30;18.80;26.90
23475;DHT22;11910;52.086;21.066;2023-03-29T10:49:02;19.10;26.70
23475;DHT22;11910;52.086;21.066;2023-03-29T10:51:31;19.30;27.40
23475;DHT22;11910;52.086;21.066;2023-03-29T10:53:58;19.70;27.90
23475;DHT22;11910;52.086;21.066;2023-03-29T10:56:44;19.50;28.30
23475;DHT22;11910;52.086;21.066;2023-03-29T11:04:46;18.90;28.20
23475;DHT22;11910;52.086;21.066;2023-03-29T11:07:31;19.40;28.20
23475;DHT22;11910;52.086;21.066;2023-03-29T11:12:41;19.80;27.40
23475;DHT22;11910;52.086;21.066;2023-03-29T11:26:24;21.50;26.50
23475;DHT22;11910;52.086;21.066;2023-03-29T11:29:02;21.60;26.60
23475;DHT22;11910;52.086;21.066;2023-03-29T11:32:00;21.40;26.80
23475;DHT22;11910;52.086;21.066;2023-03-29T11:37:34;21.40;26.70
23475;DHT22;11910;52.086;21.066;2023-03-29T11:42:59;22.60;25.80
23475;DHT22;11910;52.086;21.066;2023-03-29T11:45:37;22.60;25.60
23475;DHT22;11910;52.086;21.066;2023-03-29T11:48:08;22.90;25.40
23475;DHT22;11910;52.086;21.066;2023-03-29T11:50:49;22.70;25.10
23475;DHT22;11910;52.086;21.066;2023-03-29T11:53:30;22.40;25.00
23475;DHT22;11910;52.086;21.066;2023-03-29T11:56:18;22.50;24.30
23475;DHT22;11910;52.086;21.066;2023-03-29T11:58:51;22.60;24.90
23475;DHT22;11910;52.086;21.066;2023-03-29T12:01:27;22.50;25.20
23475;DHT22;11910;52.086;21.066;2023-03-29T12:03:59;22.20;25.50
23475;DHT22;11910;52.086;21.066;2023-03-29T12:06:42;22.40;25.10
23475;DHT22;11910;52.086;21.066;2023-03-29T12:12:44;24.70;25.10
23475;DHT22;11910;52.086;21.066;2023-03-29T12:17:49;24.70;24.00
23475;DHT22;11910;52.086;21.066;2023-03-29T12:20:21;24.40;23.80
23475;DHT22;11910;52.086;21.066;2023-03-29T12:22:53;24.00;24.00
23475;DHT22;11910;52.086;21.066;2023-03-29T12:25:51;24.40;24.20
23475;DHT22;11910;52.086;21.066;2023-03-29T12:38:57;25.00;22.70
23475;DHT22;11910;52.086;21.066;2023-03-29T12:41:23;25.50;23.00
23475;DHT22;11910;52.086;21.066;2023-03-29T12:43:50;25.80;24.20
23475;DHT22;11910;52.086;21.066;2023-03-29T12:46:18;24.90;22.60
23475;DHT22;11910;52.086;21.066;2023-03-29T12:48:53;24.30;22.90
23475;DHT22;11910;52.086;21.066;2023-03-29T12:51:21;24.30;23.80
23475;DHT22;11910;52.086;21.066;2023-03-29T12:53:50;23.90;23.10
23475;DHT22;11910;52.086;21.066;2023-03-29T12:56:20;24.30;22.80
23475;DHT22;11910;52.086;21.066;2023-03-29T12:58:55;25.50;23.30
23475;DHT22;11910;52.086;21.066;2023-03-29T13:01:30;24.00;22.70
23475;DHT22;11910;52.086;21.066;2023-03-29T13:06:57;23.80;23.60
23475;DHT22;11910;52.086;21.066;2023-03-29T13:09:30;24.00;23.30
23475;DHT22;11910;52.086;21.066;2023-03-29T13:14:51;23.80;22.50
23475;DHT22;11910;52.086;21.066;2023-03-29T13:20:12;24.30;22.50
23475;DHT22;11910;52.086;21.066;2023-03-29T13:22:54;24.50;22.50
23475;DHT22;11910;52.086;21.066;2023-03-29T13:25:54;24.90;22.40
23475;DHT22;11910;52.086;21.066;2023-03-29T13:28:43;24.40;22.30
23475;DHT22;11910;52.086;21.066;2023-03-29T13:34:32;25.10;21.80
23475;DHT22;11910;52.086;21.066;2023-03-29T13:37:39;25.60;21.50
23475;DHT22;11910;52.086;21.066;2023-03-29T13:45:42;24.90;21.50
23475;DHT22;11910;52.086;21.066;2023-03-29T13:48:24;25.00;21.70
23475;DHT22;11910;52.086;21.066;2023-03-29T13:53:31;23.50;22.50
23475;DHT22;11910;52.086;21.066;2023-03-29T13:55:59;23.00;22.60
23475;DHT22;11910;52.086;21.066;2023-03-29T13:58:45;23.40;22.80
23475;DHT22;11910;52.086;21.066;2023-03-29T14:01:19;23.70;22.60
23475;DHT22;11910;52.086;21.066;2023-03-29T14:03:49;23.10;23.10
23475;DHT22;11910;52.086;21.066;2023-03-29T14:06:30;23.50;22.80
23475;DHT22;11910;52.086;21.066;2023-03-29T14:08:59;24.40;22.30
23475;DHT22;11910;52.086;21.066;2023-03-29T14:11:29;24.30;22.40
23475;DHT22;11910;52.086;21.066;2023-03-29T14:14:02;24.50;22.90
23475;DHT22;11910;52.086;21.066;2023-03-29T14:16:34;24.60;22.80
23475;DHT22;11910;52.086;21.066;2023-03-29T14:19:16;24.40;22.80
23475;DHT22;11910;52.086;21.066;2023-03-29T14:21:43;23.10;22.90
23475;DHT22;11910;52.086;21.066;2023-03-29T14:24:21;22.90;23.10
23475;DHT22;11910;52.086;21.066;2023-03-29T14:26:47;22.60;23.30
23475;DHT22;11910;52.086;21.066;2023-03-29T14:29:13;23.10;23.40
23475;DHT22;11910;52.086;21.066;2023-03-29T14:31:40;22.80;23.50
23475;DHT22;11910;52.086;21.066;2023-03-29T14:34:16;22.10;23.40
23475;DHT22;11910;52.086;21.066;2023-03-29T14:36:47;21.70;24.40
23475;DHT22;11910;52.086;21.066;2023-03-29T14:39:20;21.60;23.60
23475;DHT22;11910;52.086;21.066;2023-03-29T14:42:19;21.20;23.80
23475;DHT22;11910;52.086;21.066;2023-03-29T14:44:47;21.00;24.40
23475;DHT22;11910;52.086;21.066;2023-03-29T14:47:42;20.10;24.70
23475;DHT22;11910;52.086;21.066;2023-03-29T14:53:04;19.40;25.70
23475;DHT22;11910;52.086;21.066;2023-03-29T14:55:30;19.90;25.40
23475;DHT22;11910;52.086;21.066;2023-03-29T14:57:57;19.60;25.40
23475;DHT22;11910;52.086;21.066;2023-03-29T15:00:36;20.00;25.40
23475;DHT22;11910;52.086;21.066;2023-03-29T15:03:10;20.40;25.50
23475;DHT22;11910;52.086;21.066;2023-03-29T15:05:39;20.70;25.00
23475;DHT22;11910;52.086;21.066;2023-03-29T15:08:07;21.40;24.90
23475;DHT22;11910;52.086;21.066;2023-03-29T15:10:37;20.90;25.60
23475;DHT22;11910;52.086;21.066;2023-03-29T15:13:04;19.40;25.30
23475;DHT22;11910;52.086;21.066;2023-03-29T15:15:34;18.50;26.40
23475;DHT22;11910;52.086;21.066;2023-03-29T15:18:02;18.30;26.90
23475;DHT22;11910;52.086;21.066;2023-03-29T15:20:33;17.80;27.00
23475;DHT22;11910;52.086;21.066;2023-03-29T15:23:06;17.30;27.40
23475;DHT22;11910;52.086;21.066;2023-03-29T15:25:49;16.60;27.80
23475;DHT22;11910;52.086;21.066;2023-03-29T15:28:49;16.40;27.60
23475;DHT22;11910;52.086;21.066;2023-03-29T15:31:23;16.40;28.20
23475;DHT22;11910;52.086;21.066;2023-03-29T15:34:13;16.10;28.50
23475;DHT22;11910;52.086;21.066;2023-03-29T15:36:48;15.70;29.10
23475;DHT22;11910;52.086;21.066;2023-03-29T15:39:16;15.00;29.70
23475;DHT22;11910;52.086;21.066;2023-03-29T15:41:43;14.30;29.90
23475;DHT22;11910;52.086;21.066;2023-03-29T15:44:09;13.70;30.80
23475;DHT22;11910;52.086;21.066;2023-03-29T15:46:35;13.50;31.20
23475;DHT22;11910;52.086;21.066;2023-03-29T15:49:01;13.70;31.20
23475;DHT22;11910;52.086;21.066;2023-03-29T15:51:27;13.60;31.20
23475;DHT22;11910;52.086;21.066;2023-03-29T15:53:53;13.50;31.30
23475;DHT22;11910;52.086;21.066;2023-03-29T15:56:20;13.40;31.50
23475;DHT22;11910;52.086;21.066;2023-03-29T15:58:47;13.20;32.30
23475;DHT22;11910;52.086;21.066;2023-03-29T16:01:32;13.00;32.80
23475;DHT22;11910;52.086;21.066;2023-03-29T16:04:16;12.70;32.30
23475;DHT22;11910;52.086;21.066;2023-03-29T16:06:46;12.40;32.50
23475;DHT22;11910;52.086;21.066;2023-03-29T16:09:13;12.00;33.20
23475;DHT22;11910;52.086;21.066;2023-03-29T16:11:39;11.60;33.70
23475;DHT22;11910;52.086;21.066;2023-03-29T16:16:41;10.90;34.70
23475;DHT22;11910;52.086;21.066;2023-03-29T16:19:06;10.70;35.00
23475;DHT22;11910;52.086;21.066;2023-03-29T16:21:32;10.60;35.70
23475;DHT22;11910;52.086;21.066;2023-03-29T16:23:58;10.40;35.90
23475;DHT22;11910;52.086;21.066;2023-03-29T16:26:24;10.40;36.60
23475;DHT22;11910;52.086;21.066;2023-03-29T16:28:51;10.40;37.00
23475;DHT22;11910;52.086;21.066;2023-03-29T16:31:16;10.30;37.00
23475;DHT22;11910;52.086;21.066;2023-03-29T16:33:42;10.10;36.80
23475;DHT22;11910;52.086;21.066;2023-03-29T16:36:09;10.00;37.00
23475;DHT22;11910;52.086;21.066;2023-03-29T16:38:35;9.80;37.30
23475;DHT22;11910;52.086;21.066;2023-03-29T16:41:00;9.70;37.40
23475;DHT22;11910;52.086;21.066;2023-03-29T16:43:26;9.60;37.60
23475;DHT22;11910;52.086;21.066;2023-03-29T16:45:52;9.50;38.10
23475;DHT22;11910;52.086;21.066;2023-03-29T16:48:18;9.40;38.10
23475;DHT22;11910;52.086;21.066;2023-03-29T16:50:45;9.30;38.30
23475;DHT22;11910;52.086;21.066;2023-03-29T16:53:14;9.30;39.00
23475;DHT22;11910;52.086;21.066;2023-03-29T16:55:40;9.20;39.80
23475;DHT22;11910;52.086;21.066;2023-03-29T16:58:07;9.10;39.60
23475;DHT22;11910;52.086;21.066;2023-03-29T17:00:33;9.00;41.30
23475;DHT22;11910;52.086;21.066;2023-03-29T17:03:05;9.00;44.60
23475;DHT22;11910;52.086;21.066;2023-03-29T17:05:33;8.90;43.80